Main page
METAR-TAF:

METAR-TAF

Airports :

Rimini, Italy

Federico Fellini International Airport

latitude: 44-02N, longitude: 012-37E, elevation: 12 m

Current weather observation

The report was made 34 minutes ago, at 01:15 UTC
Wind 4 kt from the West
Temperature 15°C
Humidity 94%
Pressure 1020 hPa
Visibility 10 km or more
no clouds below 1500 m and no cumulonimbus

METAR: LIPR 260115Z 27004KT CAVOK 15/14 Q1020

Time: 03:49 (01:49 UTC)

Forecast

The report was made 2 hours and 49 minutes ago, at 23:00 UTC
Forecast valid from 26 at 00 UTC to 26 at 09 UTC
Wind 6 kt from the North
Visibility 10 km or more
Scattered clouds at a height of 2000 ft
Scattered clouds at a height of 6000 ft

TAF: LIPR 252300Z 2600/2609 35006KT 9999 SCT020 SCT060

Weather observations and forecasts of more than 4000 airports (METAR and TAF reports).

The available stations are represented by yellow and red dots on the map.

Hover mouse over dot to see the name of the station.

Then click to see weather observations and forecasts.

To change the map : click on the green buttons with a black cross to zoom in, on the green button with a dash to zoom out, or on the green arrows for adjacent maps.


METAR-TAF: